createdAt,value
2023-04-16T00:01:56.168Z,101545.94
2023-04-16T00:04:23.227Z,101536.66
2023-04-16T00:06:50.089Z,101541.88
2023-04-16T00:09:16.901Z,101537.13
2023-04-16T00:11:43.677Z,101539.63
2023-04-16T00:14:10.674Z,101531.31
2023-04-16T00:16:38.657Z,101546.63
2023-04-16T00:19:05.576Z,101532.00
2023-04-16T00:21:32.495Z,101541.53
2023-04-16T00:23:59.353Z,101538.06
2023-04-16T00:26:26.148Z,101533.19
2023-04-16T00:28:52.956Z,101532.34
2023-04-16T00:31:30.277Z,101540.28
2023-04-16T00:33:57.611Z,101541.84
2023-04-16T00:36:24.939Z,101545.44
2023-04-16T00:38:51.713Z,101530.94
2023-04-16T00:41:18.495Z,101534.38
2023-04-16T00:43:45.300Z,101532.94
2023-04-16T00:46:12.214Z,101539.69
2023-04-16T00:48:39.939Z,101536.72
2023-04-16T00:51:07.481Z,101543.25
2023-04-16T00:53:34.561Z,101540.66
2023-04-16T00:56:05.306Z,101536.72
2023-04-16T00:58:32.729Z,101544.31
2023-04-16T01:00:59.834Z,101541.22
2023-04-16T01:03:39.735Z,101549.06
2023-04-16T01:06:07.503Z,101551.06
2023-04-16T01:08:34.414Z,101545.00
2023-04-16T01:11:01.418Z,101554.72
2023-04-16T01:13:28.198Z,101560.56
2023-04-16T01:15:55.119Z,101552.34
2023-04-16T01:18:22.412Z,101554.13
2023-04-16T01:20:50.078Z,101551.72
2023-04-16T01:23:18.695Z,101549.94
2023-04-16T01:25:46.431Z,101547.47
2023-04-16T01:28:13.243Z,101551.63
2023-04-16T01:30:40.024Z,101551.84
2023-04-16T01:33:08.098Z,101554.25
2023-04-16T01:35:34.908Z,101560.41
2023-04-16T01:38:01.727Z,101550.19
2023-04-16T01:40:28.533Z,101549.59
2023-04-16T01:42:55.567Z,101551.13
2023-04-16T01:45:22.333Z,101553.84
2023-04-16T01:47:50.403Z,101543.41
2023-04-16T01:50:18.067Z,101542.06
2023-04-16T01:52:44.890Z,101546.97
2023-04-16T01:55:11.791Z,101540.41
2023-04-16T01:57:38.615Z,101551.59
2023-04-16T02:00:05.959Z,101556.69
2023-04-16T02:02:32.793Z,101553.34
2023-04-16T02:04:59.750Z,101549.06
2023-04-16T02:07:27.506Z,101552.63
2023-04-16T02:09:54.295Z,101560.47
2023-04-16T02:12:21.097Z,101551.91
2023-04-16T02:14:47.872Z,101556.09
2023-04-16T02:17:15.573Z,101561.44
2023-04-16T02:19:42.369Z,101552.03
2023-04-16T02:22:09.128Z,101556.53
2023-04-16T02:24:36.096Z,101557.59
2023-04-16T02:27:02.914Z,101552.47
2023-04-16T02:29:29.791Z,101548.41
2023-04-16T02:31:56.696Z,101553.50
2023-04-16T02:34:23.616Z,101556.13
2023-04-16T02:36:50.544Z,101558.03
2023-04-16T02:39:17.420Z,101548.63
2023-04-16T02:41:44.218Z,101559.81
2023-04-16T02:44:10.997Z,101553.97
2023-04-16T02:46:37.784Z,101560.75
2023-04-16T02:49:04.554Z,101559.09
2023-04-16T02:51:33.350Z,101565.13
2023-04-16T02:54:00.163Z,101563.34
2023-04-16T02:56:26.926Z,101565.34
2023-04-16T02:58:53.768Z,101566.09
2023-04-16T03:01:20.641Z,101564.44
2023-04-16T03:03:47.516Z,101569.03
2023-04-16T03:06:14.404Z,101569.97
2023-04-16T03:08:41.166Z,101571.66
2023-04-16T03:11:07.983Z,101570.78
2023-04-16T03:13:34.771Z,101574.25
2023-04-16T03:16:01.641Z,101577.47
2023-04-16T03:18:28.625Z,101576.75
2023-04-16T03:20:55.422Z,101575.09
2023-04-16T03:23:22.263Z,101574.25
2023-04-16T03:25:49.072Z,101578.63
2023-04-16T03:28:16.285Z,101576.97
2023-04-16T03:30:43.151Z,101573.66
2023-04-16T03:33:09.930Z,101580.75
2023-04-16T03:35:36.706Z,101581.56
2023-04-16T03:38:03.570Z,101582.53
2023-04-16T03:40:30.376Z,101578.25
2023-04-16T03:42:57.156Z,101580.00
2023-04-16T03:45:24.004Z,101585.75
2023-04-16T03:47:52.946Z,101587.84
2023-04-16T03:50:20.028Z,101586.09
2023-04-16T03:52:49.335Z,101592.00
2023-04-16T03:55:16.175Z,101589.53
2023-04-16T03:57:43.017Z,101592.34
2023-04-16T04:00:10.195Z,101591.59
2023-04-16T04:02:37.076Z,101604.44
2023-04-16T04:05:04.251Z,101601.13
2023-04-16T04:07:31.148Z,101596.13
2023-04-16T04:09:57.970Z,101607.28
2023-04-16T04:12:25.072Z,101610.00
2023-04-16T04:14:51.832Z,101608.97
2023-04-16T04:17:18.646Z,101608.97
2023-04-16T04:20:00.035Z,101612.50
2023-04-16T04:22:27.912Z,101611.56
2023-04-16T04:24:54.706Z,101622.72
2023-04-16T04:27:21.448Z,101616.56
2023-04-16T04:29:48.262Z,101610.72
2023-04-16T04:32:15.080Z,101616.56
2023-04-16T04:34:41.993Z,101625.00
2023-04-16T04:37:08.769Z,101621.47
2023-04-16T04:39:35.573Z,101623.00
2023-04-16T04:42:03.435Z,101628.22
2023-04-16T04:44:30.288Z,101617.91
2023-04-16T04:46:57.089Z,101619.69
2023-04-16T04:49:23.992Z,101625.53
2023-04-16T04:51:50.975Z,101629.59
2023-04-16T04:54:17.742Z,101636.38
2023-04-16T04:56:45.928Z,101628.53
2023-04-16T04:59:12.879Z,101639.69
2023-04-16T05:01:39.734Z,101631.03
2023-04-16T05:04:06.592Z,101635.22
2023-04-16T05:06:33.465Z,101631.88
2023-04-16T05:09:00.601Z,101643.53
2023-04-16T05:11:27.451Z,101633.97
2023-04-16T05:13:54.277Z,101636.94
2023-04-16T05:16:21.111Z,101636.72
2023-04-16T05:18:47.949Z,101637.13
2023-04-16T05:21:14.770Z,101640.13
2023-04-16T05:23:41.548Z,101647.41
2023-04-16T05:26:08.325Z,101638.66
2023-04-16T05:28:35.131Z,101653.03
2023-04-16T05:31:02.231Z,101650.94
2023-04-16T05:33:29.077Z,101652.03
2023-04-16T05:35:55.840Z,101660.88
2023-04-16T05:38:22.638Z,101660.50
2023-04-16T05:40:49.560Z,101664.13
2023-04-16T05:43:16.545Z,101657.00
2023-04-16T05:45:43.372Z,101669.94
2023-04-16T05:48:10.435Z,101660.91
2023-04-16T05:50:37.414Z,101668.16
2023-04-16T05:53:06.037Z,101667.25
2023-04-16T05:55:32.953Z,101676.38
2023-04-16T05:57:59.762Z,101665.91
2023-04-16T06:00:27.295Z,101669.13
2023-04-16T06:02:54.183Z,101675.94
2023-04-16T06:05:21.267Z,101665.56
2023-04-16T06:07:48.200Z,101668.09
2023-04-16T06:10:15.074Z,101669.38
2023-04-16T06:12:41.835Z,101678.19
2023-04-16T06:15:09.324Z,101688.69
2023-04-16T06:17:36.188Z,101676.91
2023-04-16T06:20:03.094Z,101666.91
2023-04-16T06:22:29.953Z,101685.63
2023-04-16T06:24:56.934Z,101683.00
2023-04-16T06:27:23.796Z,101681.59
2023-04-16T06:29:50.816Z,101681.22
2023-04-16T06:32:17.691Z,101683.13
2023-04-16T06:34:44.485Z,101694.56
2023-04-16T06:37:11.258Z,101702.63
2023-04-16T06:39:38.097Z,101694.97
2023-04-16T06:42:04.938Z,101697.38
2023-04-16T06:44:31.915Z,101696.06
2023-04-16T06:46:58.803Z,101708.75
2023-04-16T06:49:25.735Z,101706.47
2023-04-16T06:51:52.512Z,101704.16
2023-04-16T06:54:19.891Z,101705.56
2023-04-16T06:56:46.648Z,101704.78
2023-04-16T06:59:13.475Z,101703.53
2023-04-16T07:01:41.507Z,101702.38
2023-04-16T07:04:08.350Z,101708.91
2023-04-16T07:06:35.250Z,101709.78
2023-04-16T07:09:02.054Z,101711.75
2023-04-16T07:11:29.039Z,101707.97
2023-04-16T07:13:55.872Z,101709.00
2023-04-16T07:16:22.668Z,101710.56
2023-04-16T07:18:49.616Z,101707.50
2023-04-16T07:21:16.621Z,101718.22
2023-04-16T07:23:43.531Z,101714.22
2023-04-16T07:26:11.666Z,101717.69
2023-04-16T07:28:38.492Z,101716.75
2023-04-16T07:31:05.399Z,101717.00
2023-04-16T07:33:32.224Z,101719.50
2023-04-16T07:35:59.017Z,101715.78
2023-04-16T07:38:25.934Z,101717.16
2023-04-16T07:40:52.703Z,101722.84
2023-04-16T07:43:19.516Z,101722.13
2023-04-16T07:45:46.382Z,101721.31
2023-04-16T07:48:13.262Z,101725.03
2023-04-16T07:50:40.143Z,101721.44
2023-04-16T07:53:07.830Z,101720.47
2023-04-16T07:55:34.750Z,101728.50
2023-04-16T07:58:02.917Z,101730.28
2023-04-16T08:00:29.825Z,101724.97
2023-04-16T08:02:56.790Z,101732.00
2023-04-16T08:05:23.839Z,101735.03
2023-04-16T08:07:50.676Z,101739.53
2023-04-16T08:10:17.482Z,101738.50
2023-04-16T08:12:44.558Z,101743.13
2023-04-16T08:15:11.684Z,101740.78
2023-04-16T08:17:38.843Z,101741.28
2023-04-16T08:20:06.502Z,101741.09
2023-04-16T08:22:33.664Z,101742.34
2023-04-16T08:25:00.673Z,101739.88
2023-04-16T08:27:27.519Z,101737.06
2023-04-16T08:29:54.334Z,101741.28
2023-04-16T08:32:21.243Z,101740.81
2023-04-16T08:34:48.097Z,101738.31
2023-04-16T08:37:14.892Z,101734.88
2023-04-16T08:39:41.855Z,101731.38
2023-04-16T08:42:38.976Z,101738.09
2023-04-16T08:45:16.988Z,101742.56
2023-04-16T08:47:50.932Z,101746.09
2023-04-16T08:50:26.139Z,101733.91
2023-04-16T08:52:59.472Z,101747.44
2023-04-16T08:55:47.797Z,101743.00
2023-04-16T08:58:15.558Z,101743.81
2023-04-16T09:00:42.381Z,101747.34
2023-04-16T09:03:09.687Z,101749.69
2023-04-16T09:05:36.625Z,101762.22
2023-04-16T09:08:03.908Z,101756.88
2023-04-16T09:10:30.690Z,101748.78
2023-04-16T09:12:57.632Z,101749.59
2023-04-16T09:15:25.754Z,101759.81
2023-04-16T09:17:53.124Z,101769.59
2023-04-16T09:20:20.226Z,101766.19
2023-04-16T09:22:47.099Z,101769.47
2023-04-16T09:25:13.958Z,101777.81
2023-04-16T09:27:40.835Z,101784.88
2023-04-16T09:30:23.699Z,101782.53
2023-04-16T09:33:00.067Z,101791.97
2023-04-16T09:35:26.930Z,101790.41
2023-04-16T09:37:57.573Z,101787.25
2023-04-16T09:40:26.251Z,101789.28
2023-04-16T09:42:53.668Z,101789.84
2023-04-16T09:45:20.428Z,101788.00
2023-04-16T09:47:47.262Z,101795.47
2023-04-16T09:50:18.933Z,101795.75
2023-04-16T09:52:48.324Z,101799.44
2023-04-16T09:55:15.524Z,101803.97
2023-04-16T09:57:42.359Z,101800.47
2023-04-16T10:00:10.352Z,101801.84
2023-04-16T10:02:42.088Z,101806.91
2023-04-16T10:05:09.784Z,101804.72
2023-04-16T10:07:37.377Z,101801.59
2023-04-16T10:10:05.079Z,101817.00
2023-04-16T10:12:33.008Z,101813.53
2023-04-16T10:15:00.211Z,101821.63
2023-04-16T10:17:30.178Z,101816.22
2023-04-16T10:19:58.400Z,101820.53
2023-04-16T10:22:26.414Z,101812.81
2023-04-16T10:24:53.304Z,101815.84
2023-04-16T10:27:20.123Z,101811.75
2023-04-16T10:29:46.987Z,101812.41
2023-04-16T10:32:13.874Z,101808.34
2023-04-16T10:34:40.733Z,101810.06
2023-04-16T10:37:07.485Z,101810.31
2023-04-16T10:39:37.421Z,101808.34
2023-04-16T10:42:11.780Z,101814.47
2023-04-16T10:44:40.274Z,101827.84
2023-04-16T10:47:14.408Z,101819.16
2023-04-16T10:49:47.642Z,101818.91
2023-04-16T10:52:19.104Z,101830.94
2023-04-16T10:54:46.890Z,101828.38
2023-04-16T10:57:17.886Z,101822.47
2023-04-16T10:59:44.994Z,101834.94
2023-04-16T11:02:16.156Z,101832.44
2023-04-16T11:04:47.334Z,101853.19
2023-04-16T11:07:17.949Z,101859.38
2023-04-16T11:10:03.233Z,101853.22
2023-04-16T11:12:30.042Z,101853.50
2023-04-16T11:15:08.205Z,101851.13
2023-04-16T11:17:43.348Z,101852.72
2023-04-16T11:20:30.631Z,101859.13
2023-04-16T11:22:57.957Z,101855.69
2023-04-16T11:25:31.742Z,101865.44
2023-04-16T11:28:01.647Z,101857.75
2023-04-16T11:30:35.995Z,101867.97
2023-04-16T11:33:09.893Z,101863.84
2023-04-16T11:35:36.713Z,101873.22
2023-04-16T11:38:04.220Z,101870.47
2023-04-16T11:40:34.155Z,101871.72
2023-04-16T11:43:27.192Z,101880.94
2023-04-16T11:45:58.509Z,101875.69
2023-04-16T11:48:25.359Z,101884.38
2023-04-16T11:50:58.210Z,101886.81
2023-04-16T11:53:25.068Z,101885.81
2023-04-16T11:55:51.893Z,101892.66
2023-04-16T11:58:20.172Z,101883.94
2023-04-16T12:00:49.099Z,101884.09
2023-04-16T12:03:16.237Z,101892.28
2023-04-16T12:05:43.363Z,101889.38
2023-04-16T12:08:11.537Z,101891.44
2023-04-16T12:10:59.791Z,101891.91
2023-04-16T12:13:26.637Z,101888.94
2023-04-16T12:15:54.676Z,101883.22
2023-04-16T12:18:27.249Z,101884.13
2023-04-16T12:20:54.205Z,101887.88
2023-04-16T12:23:28.672Z,101897.97
2023-04-16T12:25:55.637Z,101895.56
2023-04-16T12:28:36.722Z,101897.28
2023-04-16T12:31:03.658Z,101907.00
2023-04-16T12:33:30.636Z,101898.38
2023-04-16T12:35:57.504Z,101900.41
2023-04-16T12:38:25.615Z,101902.25
2023-04-16T12:40:56.948Z,101893.97
2023-04-16T12:43:24.456Z,101894.22
2023-04-16T12:45:51.525Z,101894.44
2023-04-16T12:48:18.297Z,101894.44
2023-04-16T12:50:45.128Z,101891.09
2023-04-16T12:53:12.104Z,101899.13
2023-04-16T12:55:39.213Z,101898.25
2023-04-16T12:58:06.709Z,101900.00
2023-04-16T13:00:33.568Z,101906.31
2023-04-16T13:03:00.563Z,101914.06
2023-04-16T13:05:27.484Z,101920.47
2023-04-16T13:07:54.353Z,101902.56
2023-04-16T13:10:22.222Z,101910.25
2023-04-16T13:12:49.273Z,101908.97
2023-04-16T13:15:16.230Z,101899.69
2023-04-16T13:17:43.153Z,101914.72
2023-04-16T13:20:10.642Z,101917.56
2023-04-16T13:22:37.697Z,101915.78
2023-04-16T13:25:05.135Z,101913.59
2023-04-16T13:27:32.717Z,101920.75
2023-04-16T13:29:59.521Z,101908.06
2023-04-16T13:32:26.502Z,101914.59
2023-04-16T13:34:53.312Z,101906.59
2023-04-16T13:37:20.090Z,101911.69
2023-04-16T13:39:47.422Z,101915.94
2023-04-16T13:42:14.255Z,101919.78
2023-04-16T13:44:41.182Z,101925.91
2023-04-16T13:47:08.217Z,101926.19
2023-04-16T13:49:36.081Z,101922.44
2023-04-16T13:52:03.457Z,101916.84
2023-04-16T13:54:30.271Z,101930.94
2023-04-16T13:56:57.149Z,101932.09
2023-04-16T13:59:24.050Z,101926.50
2023-04-16T14:01:51.468Z,101928.84
2023-04-16T14:04:18.799Z,101926.41
2023-04-16T14:06:45.750Z,101917.16
2023-04-16T14:09:12.732Z,101920.72
2023-04-16T14:11:39.703Z,101922.47
2023-04-16T14:14:06.734Z,101920.84
2023-04-16T14:16:34.614Z,101928.41
2023-04-16T14:19:01.514Z,101926.75
2023-04-16T14:21:28.853Z,101923.66
2023-04-16T14:23:55.901Z,101931.44
2023-04-16T14:26:23.005Z,101930.50
2023-04-16T14:28:50.853Z,101933.44
2023-04-16T14:31:18.359Z,101930.19
2023-04-16T14:33:45.411Z,101933.09
2023-04-16T14:36:12.295Z,101940.13
2023-04-16T14:38:39.668Z,101932.91
2023-04-16T14:41:06.575Z,101925.97
2023-04-16T14:43:33.475Z,101933.31
2023-04-16T14:46:00.356Z,101926.28
2023-04-16T14:48:27.198Z,101933.78
2023-04-16T14:50:54.229Z,101938.81
2023-04-16T14:53:21.050Z,101937.84
2023-04-16T14:55:47.925Z,101951.28
2023-04-16T14:58:14.707Z,101935.38
2023-04-16T15:00:41.477Z,101940.22
2023-04-16T15:03:08.420Z,101944.09
2023-04-16T15:05:35.688Z,101941.09
2023-04-16T15:08:02.588Z,101939.13
2023-04-16T15:10:29.791Z,101949.09
2023-04-16T15:12:56.580Z,101956.09
2023-04-16T15:15:23.372Z,101951.09
2023-04-16T15:17:51.162Z,101952.78
2023-04-16T15:20:18.445Z,101956.41
2023-04-16T15:22:45.241Z,101965.19
2023-04-16T15:25:12.113Z,101967.19
2023-04-16T15:27:38.894Z,101960.19
2023-04-16T15:30:06.672Z,101966.44
2023-04-16T15:32:33.507Z,101966.03
2023-04-16T15:35:02.276Z,101954.66
2023-04-16T15:37:29.119Z,101967.50
2023-04-16T15:39:56.704Z,101946.66
2023-04-16T15:42:23.952Z,101967.50
2023-04-16T15:44:50.750Z,101982.22
2023-04-16T15:47:17.509Z,101984.09
2023-04-16T15:49:44.389Z,101979.31
2023-04-16T15:52:12.020Z,101989.44
2023-04-16T15:54:38.857Z,101981.06
2023-04-16T15:57:05.672Z,101990.19
2023-04-16T15:59:32.972Z,101984.59
2023-04-16T16:01:59.888Z,101987.91
2023-04-16T16:04:28.264Z,101987.69
2023-04-16T16:06:55.230Z,101982.78
2023-04-16T16:09:26.324Z,101992.88
2023-04-16T16:11:54.394Z,101990.31
2023-04-16T16:14:22.018Z,101995.19
2023-04-16T16:16:48.814Z,101999.25
2023-04-16T16:19:15.776Z,102006.06
2023-04-16T16:21:42.715Z,102001.91
2023-04-16T16:24:09.696Z,102007.59
2023-04-16T16:26:36.719Z,101998.09
2023-04-16T16:29:03.640Z,102018.22
2023-04-16T16:31:30.581Z,102014.28
2023-04-16T16:33:57.407Z,102006.22
2023-04-16T16:36:24.188Z,102010.63
2023-04-16T16:38:51.323Z,102011.16
2023-04-16T16:41:18.106Z,102011.50
2023-04-16T16:43:44.900Z,102016.41
2023-04-16T16:46:11.903Z,102020.22
2023-04-16T16:48:38.887Z,102020.41
2023-04-16T16:51:09.758Z,102017.97
2023-04-16T16:53:36.620Z,102020.63
2023-04-16T16:56:03.512Z,102016.53
2023-04-16T16:58:30.566Z,102036.38
2023-04-16T17:00:57.381Z,102034.16
2023-04-16T17:03:24.189Z,102021.31
2023-04-16T17:05:51.236Z,102032.69
2023-04-16T17:08:17.973Z,102026.63
2023-04-16T17:10:44.812Z,102032.84
2023-04-16T17:13:13.718Z,102027.84
2023-04-16T17:15:41.043Z,102028.47
2023-04-16T17:18:07.909Z,102041.47
2023-04-16T17:20:34.695Z,102038.47
2023-04-16T17:23:01.612Z,102041.00
2023-04-16T17:25:28.376Z,102049.81
2023-04-16T17:27:55.127Z,102040.00
2023-04-16T17:30:23.871Z,102050.44
2023-04-16T17:32:50.752Z,102044.56
2023-04-16T17:35:17.573Z,102049.00
2023-04-16T17:37:44.349Z,102046.34
2023-04-16T17:40:12.787Z,102049.13
2023-04-16T17:42:39.789Z,102055.84
2023-04-16T17:45:07.389Z,102063.19
2023-04-16T17:47:37.633Z,102066.38
2023-04-16T17:50:05.205Z,102064.38
2023-04-16T17:52:31.984Z,102069.13
2023-04-16T17:55:01.684Z,102073.81
2023-04-16T17:57:28.787Z,102070.91
2023-04-16T17:59:55.735Z,102071.13
2023-04-16T18:02:22.981Z,102065.66
2023-04-16T18:04:50.120Z,102074.88
2023-04-16T18:07:17.094Z,102076.38
2023-04-16T18:09:43.867Z,102085.41
2023-04-16T18:12:10.855Z,102078.28
2023-04-16T18:14:38.807Z,102087.28
2023-04-16T18:17:06.672Z,102078.28
2023-04-16T18:19:33.651Z,102087.19
2023-04-16T18:22:00.725Z,102092.41
2023-04-16T18:24:27.531Z,102096.78
2023-04-16T18:26:55.296Z,102096.69
2023-04-16T18:29:25.065Z,102092.50
2023-04-16T18:31:52.203Z,102098.75
2023-04-16T18:34:19.107Z,102108.56
2023-04-16T18:36:45.858Z,102101.03
2023-04-16T18:39:12.667Z,102105.63
2023-04-16T18:41:40.816Z,102106.97
2023-04-16T18:44:07.655Z,102109.72
2023-04-16T18:46:34.416Z,102104.75
2023-04-16T18:49:01.448Z,102106.53
2023-04-16T18:51:28.510Z,102104.69
2023-04-16T18:53:55.440Z,102107.38
2023-04-16T18:56:22.197Z,102102.16
2023-04-16T18:58:49.436Z,102099.53
2023-04-16T19:01:16.671Z,102109.91
2023-04-16T19:03:43.615Z,102105.81
2023-04-16T19:06:10.611Z,102116.03
2023-04-16T19:08:37.528Z,102099.09
2023-04-16T19:11:04.336Z,102124.00
2023-04-16T19:13:32.400Z,102120.56
2023-04-16T19:15:59.978Z,102116.34
2023-04-16T19:18:26.955Z,102120.63
2023-04-16T19:21:00.784Z,102116.28
2023-04-16T19:23:28.003Z,102115.53
2023-04-16T19:25:57.957Z,102115.53
2023-04-16T19:28:25.117Z,102111.75
2023-04-16T19:30:52.406Z,102111.97
2023-04-16T19:33:19.291Z,102121.69
2023-04-16T19:35:46.837Z,102123.66
2023-04-16T19:38:13.690Z,102109.59
2023-04-16T19:40:41.112Z,102124.34
2023-04-16T19:43:07.977Z,102122.97
2023-04-16T19:45:35.174Z,102130.69
2023-04-16T19:48:02.053Z,102132.56
2023-04-16T19:50:28.843Z,102142.06
2023-04-16T19:52:55.665Z,102133.78
2023-04-16T19:55:22.815Z,102139.31
2023-04-16T19:57:49.829Z,102138.97
2023-04-16T20:00:17.133Z,102136.81
2023-04-16T20:02:44.047Z,102142.91
2023-04-16T20:05:11.181Z,102143.25
2023-04-16T20:07:37.965Z,102129.16
2023-04-16T20:10:05.157Z,102140.66
2023-04-16T20:12:32.216Z,102130.59
2023-04-16T20:14:59.285Z,102133.56
2023-04-16T20:17:26.143Z,102135.44
2023-04-16T20:19:52.882Z,102137.50
2023-04-16T20:22:19.779Z,102133.38
2023-04-16T20:24:49.281Z,102130.88
2023-04-16T20:27:17.090Z,102131.91
2023-04-16T20:29:43.840Z,102123.59
2023-04-16T20:32:10.739Z,102128.16
2023-04-16T20:34:38.141Z,102131.31
2023-04-16T20:37:05.063Z,102133.09
2023-04-16T20:39:34.257Z,102124.53
2023-04-16T20:42:04.224Z,102130.28
2023-04-16T20:44:40.448Z,102145.28
2023-04-16T20:47:11.716Z,102127.19
2023-04-16T20:49:38.567Z,102141.81
2023-04-16T20:52:05.651Z,102142.84
2023-04-16T20:54:32.387Z,102145.53
2023-04-16T20:56:59.190Z,102144.31
2023-04-16T20:59:26.177Z,102149.03
2023-04-16T21:01:53.268Z,102145.94
2023-04-16T21:04:20.496Z,102154.84
2023-04-16T21:06:47.438Z,102148.16
2023-04-16T21:09:14.249Z,102146.53
2023-04-16T21:11:41.226Z,102156.06
2023-04-16T21:14:07.988Z,102148.75
2023-04-16T21:16:34.761Z,102143.66
2023-04-16T21:19:01.600Z,102142.78
2023-04-16T21:21:28.385Z,102146.97
2023-04-16T21:23:55.170Z,102146.31
2023-04-16T21:26:21.918Z,102149.47
2023-04-16T21:28:48.666Z,102146.41
2023-04-16T21:31:15.530Z,102146.00
2023-04-16T21:33:42.357Z,102143.84
2023-04-16T21:36:10.157Z,102136.59
2023-04-16T21:38:36.904Z,102137.94
2023-04-16T21:41:03.712Z,102135.88
2023-04-16T21:43:32.119Z,102132.19
2023-04-16T21:45:59.591Z,102134.41
2023-04-16T21:48:27.116Z,102132.63
2023-04-16T21:50:58.167Z,102141.03
2023-04-16T21:53:26.029Z,102128.81
2023-04-16T21:55:52.802Z,102118.28
2023-04-16T21:58:19.563Z,102132.84
2023-04-16T22:00:47.272Z,102141.31
2023-04-16T22:03:14.482Z,102131.78
2023-04-16T22:05:41.343Z,102135.25
2023-04-16T22:08:23.250Z,102147.09
2023-04-16T22:10:51.557Z,102143.53
2023-04-16T22:13:18.437Z,102135.16
2023-04-16T22:15:45.267Z,102142.44
2023-04-16T22:18:12.468Z,102145.25
2023-04-16T22:20:39.793Z,102143.28
2023-04-16T22:23:06.874Z,102145.88
2023-04-16T22:25:33.764Z,102140.56
2023-04-16T22:28:01.582Z,102142.22
2023-04-16T22:30:28.492Z,102146.63
2023-04-16T22:32:55.352Z,102151.84
2023-04-16T22:35:22.137Z,102145.88
2023-04-16T22:37:48.890Z,102153.53
2023-04-16T22:40:15.989Z,102143.19
2023-04-16T22:42:42.755Z,102153.53
2023-04-16T22:45:09.939Z,102139.19
2023-04-16T22:47:36.874Z,102153.53
2023-04-16T22:50:03.711Z,102154.56
2023-04-16T22:52:30.491Z,102156.03
2023-04-16T22:54:57.301Z,102159.50
2023-04-16T22:57:26.777Z,102159.50
2023-04-16T22:59:53.581Z,102158.66
2023-04-16T23:02:21.225Z,102160.44
2023-04-16T23:04:48.147Z,102161.38
2023-04-16T23:07:15.633Z,102160.44
2023-04-16T23:09:42.728Z,102168.16
2023-04-16T23:12:09.513Z,102166.31
2023-04-16T23:14:37.060Z,102162.84
2023-04-16T23:17:03.907Z,102160.25
2023-04-16T23:19:31.797Z,102169.00
2023-04-16T23:21:58.887Z,102161.16
2023-04-16T23:24:25.621Z,102164.63
2023-04-16T23:26:52.802Z,102157.72
2023-04-16T23:29:20.760Z,102164.88
2023-04-16T23:31:47.956Z,102168.34
2023-04-16T23:34:14.950Z,102161.56
2023-04-16T23:36:41.826Z,102166.78
2023-04-16T23:39:08.686Z,102166.84
2023-04-16T23:41:35.704Z,102159.19
2023-04-16T23:44:02.502Z,102171.16
2023-04-16T23:46:29.247Z,102164.34
2023-04-16T23:48:56.069Z,102170.56
2023-04-16T23:51:22.827Z,102170.56
2023-04-16T23:53:49.573Z,102165.34
2023-04-16T23:56:16.700Z,102150.53
2023-04-16T23:58:43.560Z,102181.19
